Time;durP1;ratioP1;P1;durP2;ratioP2;P2;SDS_P1;SDS_P2;PMS_P1;PMS_P2;Temp;Humidity;BMP_temperature;BMP_pressure;BME280_temperature;BME280_humidity;BME280_pressure;Samples;Min_cycle;Max_cycle;Signal;HPM_P1;HPM_P2
2021/08/10 00:00:32;;;;;;;1999.90;999.90;;;16.70;99.90;;;;;;5070028;28;20458;-84
2021/08/10 00:03:00;;;;;;;1999.90;999.90;;;16.70;99.90;;;;;;5072691;28;20454;-84
2021/08/10 00:05:27;;;;;;;1999.90;999.90;;;16.80;99.90;;;;;;5057959;28;20491;-86
2021/08/10 00:07:55;;;;;;;1999.90;999.90;;;16.80;99.90;;;;;;5059162;28;20451;-86
2021/08/10 00:10:21;;;;;;;1999.90;999.90;;;16.70;99.90;;;;;;5070949;28;20454;-86
2021/08/10 00:12:48;;;;;;;1999.90;999.90;;;16.70;99.90;;;;;;5060081;28;20462;-86
2021/08/10 00:15:15;;;;;;;1999.90;999.90;;;16.70;99.90;;;;;;5061802;28;21072;-86
2021/08/10 00:17:42;;;;;;;1999.90;999.90;;;16.70;99.90;;;;;;5078473;28;20523;-85
2021/08/10 00:20:12;;;;;;;1999.90;999.90;;;16.60;99.90;;;;;;5079652;28;20447;-85
2021/08/10 00:22:39;;;;;;;1999.90;999.90;;;16.60;99.90;;;;;;5070697;28;20451;-86
2021/08/10 00:25:07;;;;;;;1999.90;999.90;;;16.60;99.90;;;;;;5064978;28;20529;-85
2021/08/10 00:27:34;;;;;;;1999.90;999.90;;;16.60;99.90;;;;;;5078637;28;20447;-86
2021/08/10 00:30:01;;;;;;;1999.90;999.90;;;16.50;99.90;;;;;;5076339;28;20458;-86
2021/08/10 00:32:28;;;;;;;1999.90;999.90;;;16.50;99.90;;;;;;5081514;28;20454;-86
2021/08/10 00:34:55;;;;;;;1999.90;999.90;;;16.40;99.90;;;;;;5079594;28;20474;-86
2021/08/10 00:37:23;;;;;;;1999.90;999.90;;;16.30;99.90;;;;;;5077637;28;20454;-86
2021/08/10 00:39:50;;;;;;;1999.90;999.90;;;16.20;99.90;;;;;;5076593;28;20538;-85
2021/08/10 00:42:17;;;;;;;1999.90;999.90;;;16.20;99.90;;;;;;5075445;28;20451;-85
2021/08/10 00:44:43;;;;;;;1999.90;999.90;;;16.20;99.90;;;;;;5072890;28;20479;-85
2021/08/10 00:47:10;;;;;;;1999.90;999.90;;;16.20;99.90;;;;;;5056996;28;20438;-86
2021/08/10 00:49:37;;;;;;;1999.90;999.90;;;16.20;99.90;;;;;;5066685;28;20472;-86
2021/08/10 00:52:05;;;;;;;1999.90;999.90;;;16.20;99.90;;;;;;5082459;28;20530;-86
2021/08/10 00:54:33;;;;;;;1999.90;999.90;;;16.10;99.90;;;;;;5073538;28;20451;-86
2021/08/10 00:57:00;;;;;;;1999.90;999.90;;;16.10;99.90;;;;;;5057773;28;20495;-86
2021/08/10 00:59:27;;;;;;;1999.90;999.90;;;16.10;99.90;;;;;;5058416;28;20449;-86
2021/08/10 01:01:54;;;;;;;1999.90;999.90;;;16.10;99.90;;;;;;5062095;28;20457;-86
2021/08/10 01:04:21;;;;;;;1999.90;999.90;;;16.00;99.90;;;;;;5059793;28;20832;-85
2021/08/10 01:06:57;;;;;;;1999.90;999.90;;;16.00;99.90;;;;;;5089930;28;20511;-85
2021/08/10 01:09:31;;;;;;;1999.90;999.90;;;16.00;99.90;;;;;;5081445;28;20454;-86
2021/08/10 01:12:06;;;;;;;1999.90;999.90;;;16.00;99.90;;;;;;5064054;28;20428;-85
2021/08/10 01:14:41;;;;;;;1999.90;999.90;;;15.90;99.90;;;;;;5065640;28;20500;-85
2021/08/10 01:17:14;;;;;;;1999.90;999.90;;;15.90;99.90;;;;;;5067110;28;20457;-86
2021/08/10 01:20:14;;;;;;;1999.90;999.90;;;15.90;99.90;;;;;;5075792;28;20458;-87
2021/08/10 01:22:48;;;;;;;1999.90;999.90;;;15.80;99.90;;;;;;5071670;28;20456;-86
2021/08/10 01:25:30;;;;;;;1999.90;999.90;;;15.80;99.90;;;;;;5067475;28;20866;-86
2021/08/10 01:28:16;;;;;;;1999.90;999.90;;;15.80;99.90;;;;;;5058129;28;20455;-86
2021/08/10 01:31:06;;;;;;;1999.90;999.90;;;15.70;99.90;;;;;;5062718;28;20467;-86
2021/08/10 01:33:37;;;;;;;1999.90;999.90;;;15.70;99.90;;;;;;5077755;28;20528;-86
2021/08/10 01:36:05;;;;;;;1999.90;999.90;;;15.70;99.90;;;;;;5062099;28;20464;-85
2021/08/10 01:38:34;;;;;;;1999.90;999.90;;;15.70;99.90;;;;;;5057712;28;20469;-86
2021/08/10 01:41:02;;;;;;;1999.90;999.90;;;15.60;99.90;;;;;;5057519;28;20455;-85
2021/08/10 01:43:30;;;;;;;1999.90;999.90;;;15.70;99.90;;;;;;5071936;28;20472;-85
2021/08/10 01:45:59;;;;;;;1999.90;999.90;;;15.70;99.90;;;;;;5065224;28;20489;-86
2021/08/10 01:48:27;;;;;;;1999.90;999.90;;;15.70;99.90;;;;;;5057355;28;20452;-85
2021/08/10 01:50:57;;;;;;;1999.90;999.90;;;15.70;99.90;;;;;;5065888;28;20528;-86
2021/08/10 01:53:24;;;;;;;1999.90;999.90;;;15.70;99.90;;;;;;5060804;28;20476;-85
2021/08/10 01:55:53;;;;;;;1999.90;999.90;;;15.70;99.90;;;;;;5064678;28;20834;-85
2021/08/10 01:58:20;;;;;;;1999.90;999.90;;;15.70;99.90;;;;;;5060856;28;20459;-85
2021/08/10 02:00:48;;;;;;;1999.90;999.90;;;15.60;99.90;;;;;;5061477;28;20974;-86
2021/08/10 02:03:16;;;;;;;1999.90;999.90;;;15.60;99.90;;;;;;5072750;28;20455;-85
2021/08/10 02:05:44;;;;;;;1999.90;999.90;;;15.60;99.90;;;;;;5074267;28;20485;-85
2021/08/10 02:08:13;;;;;;;1999.90;999.90;;;15.60;99.90;;;;;;5074277;28;20985;-85
2021/08/10 02:10:42;;;;;;;1999.90;999.90;;;15.60;99.90;;;;;;5080591;28;20444;-86
2021/08/10 02:13:10;;;;;;;1999.90;999.90;;;15.60;99.90;;;;;;5082342;28;20456;-85
2021/08/10 02:15:39;;;;;;;1999.90;999.90;;;15.60;99.90;;;;;;5073364;28;20467;-86
2021/08/10 02:18:06;;;;;;;1999.90;999.90;;;15.60;99.90;;;;;;5063265;28;20456;-84
2021/08/10 02:20:35;;;;;;;1999.90;999.90;;;15.60;99.90;;;;;;5066992;28;20820;-85
2021/08/10 02:23:04;;;;;;;1999.90;999.90;;;15.60;99.90;;;;;;5080523;28;20454;-85
2021/08/10 02:25:33;;;;;;;1999.90;999.90;;;15.70;99.90;;;;;;5071100;28;20498;-85
2021/08/10 02:28:03;;;;;;;1999.90;999.90;;;15.70;99.90;;;;;;5061491;28;20451;-86
2021/08/10 02:30:34;;;;;;;1999.90;999.90;;;15.70;99.90;;;;;;5061242;28;20462;-85
2021/08/10 02:33:05;;;;;;;1999.90;999.90;;;15.70;99.90;;;;;;5060303;28;20455;-83
2021/08/10 02:35:32;;;;;;;1999.90;999.90;;;15.70;99.90;;;;;;5068940;28;20471;-85
2021/08/10 02:38:03;;;;;;;1999.90;999.90;;;15.70;99.90;;;;;;5074126;28;20450;-84
2021/08/10 02:40:30;;;;;;;1999.90;999.90;;;15.70;99.90;;;;;;5075120;28;20447;-84
2021/08/10 02:43:01;;;;;;;1999.90;999.90;;;15.80;99.90;;;;;;5078858;28;20449;-85
2021/08/10 02:45:28;;;;;;;1999.90;999.90;;;15.80;99.90;;;;;;5074949;28;20493;-84
2021/08/10 02:47:57;;;;;;;1999.90;999.90;;;15.80;99.90;;;;;;5061227;28;20456;-86
2021/08/10 02:50:25;;;;;;;1999.90;999.90;;;15.90;99.90;;;;;;5060019;28;20466;-84
2021/08/10 02:52:53;;;;;;;1999.90;999.90;;;15.90;99.90;;;;;;5081750;28;20479;-84
2021/08/10 02:55:21;;;;;;;1999.90;999.90;;;15.90;99.90;;;;;;5092447;28;20468;-82
2021/08/10 02:57:58;;;;;;;1999.90;999.90;;;15.90;99.90;;;;;;5072827;28;20450;-84
2021/08/10 03:00:27;;;;;;;1999.90;999.90;;;15.90;99.90;;;;;;5060882;28;20448;-84
2021/08/10 03:03:00;;;;;;;1999.90;999.90;;;16.00;99.90;;;;;;5056713;28;20455;-84
2021/08/10 03:05:30;;;;;;;1999.90;999.90;;;15.90;99.90;;;;;;5065527;28;20491;-84
2021/08/10 03:07:58;;;;;;;1999.90;999.90;;;15.90;99.90;;;;;;5056657;28;20951;-83
2021/08/10 03:10:27;;;;;;;1999.90;999.90;;;16.00;99.90;;;;;;5057988;28;20449;-83
2021/08/10 03:12:55;;;;;;;1999.90;999.90;;;16.00;99.90;;;;;;5076182;28;20454;-84
2021/08/10 03:15:27;;;;;;;1999.90;999.90;;;16.00;99.90;;;;;;5062419;28;20479;-84
2021/08/10 03:17:57;;;;;;;1999.90;999.90;;;16.00;99.90;;;;;;5075729;28;20447;-84
2021/08/10 03:20:25;;;;;;;1999.90;999.90;;;16.00;99.90;;;;;;5079204;28;20454;-85
2021/08/10 03:22:54;;;;;;;1999.90;999.90;;;16.10;99.90;;;;;;5060607;28;20454;-84
2021/08/10 03:25:23;;;;;;;1999.90;999.90;;;16.10;99.90;;;;;;5063131;28;20487;-84
2021/08/10 03:27:52;;;;;;;1999.90;999.90;;;16.00;99.90;;;;;;5064436;28;20461;-85
2021/08/10 03:30:19;;;;;;;1999.90;999.90;;;16.00;99.90;;;;;;5063544;28;20451;-85
2021/08/10 03:32:51;;;;;;;1999.90;999.90;;;16.10;99.90;;;;;;5074688;28;20548;-84
2021/08/10 03:35:18;;;;;;;1999.90;999.90;;;16.10;99.90;;;;;;5076416;28;20474;-84
2021/08/10 03:37:46;;;;;;;1999.90;999.90;;;16.20;99.90;;;;;;5082943;28;20451;-85
2021/08/10 03:40:14;;;;;;;1999.90;999.90;;;16.20;99.90;;;;;;5076676;28;20461;-85
2021/08/10 03:42:42;;;;;;;1999.90;999.90;;;16.10;99.90;;;;;;5060496;28;20455;-84
2021/08/10 03:45:09;;;;;;;1999.90;999.90;;;16.00;99.90;;;;;;5060674;28;20489;-83
2021/08/10 03:47:39;;;;;;;1999.90;999.90;;;16.00;99.90;;;;;;5079678;28;20453;-84
2021/08/10 03:50:09;;;;;;;1999.90;999.90;;;16.00;99.90;;;;;;5076054;28;20833;-84
2021/08/10 03:52:38;;;;;;;1999.90;999.90;;;16.00;99.90;;;;;;5060590;28;20454;-84
2021/08/10 03:55:08;;;;;;;1999.90;999.90;;;16.00;99.90;;;;;;5060896;28;20538;-84
2021/08/10 03:57:36;;;;;;;1999.90;999.90;;;16.00;99.90;;;;;;5066485;28;20507;-83
2021/08/10 04:00:06;;;;;;;1999.90;999.90;;;15.90;99.90;;;;;;5072521;28;20478;-83
2021/08/10 04:02:35;;;;;;;1999.90;999.90;;;16.00;99.90;;;;;;5092921;28;20464;-83
2021/08/10 04:05:02;;;;;;;1999.90;999.90;;;15.90;99.90;;;;;;5083143;28;20497;-84
2021/08/10 04:07:32;;;;;;;1999.90;999.90;;;15.90;99.90;;;;;;5060491;28;20452;-85
2021/08/10 04:09:59;;;;;;;1999.90;999.90;;;15.70;99.90;;;;;;5063714;28;20465;-85
2021/08/10 04:12:26;;;;;;;1999.90;999.90;;;15.60;99.90;;;;;;5062928;28;20962;-84
2021/08/10 04:14:52;;;;;;;1999.90;999.90;;;15.70;99.90;;;;;;5054857;28;20472;-83
2021/08/10 04:17:19;;;;;;;1999.90;999.90;;;15.70;99.90;;;;;;5054860;28;20457;-82
2021/08/10 04:19:48;;;;;;;1999.90;999.90;;;15.60;99.90;;;;;;5056498;28;20461;-83
2021/08/10 04:22:17;;;;;;;1999.90;999.90;;;15.60;99.90;;;;;;5073332;28;20457;-83
2021/08/10 04:24:45;;;;;;;1999.90;999.90;;;15.60;99.90;;;;;;5075741;28;20461;-83
2021/08/10 04:27:12;;;;;;;1999.90;999.90;;;15.60;99.90;;;;;;5063579;28;20483;-83
2021/08/10 04:29:39;;;;;;;1999.90;999.90;;;15.70;99.90;;;;;;5055429;28;21019;-84
2021/08/10 04:32:07;;;;;;;1999.90;999.90;;;15.70;99.90;;;;;;5055048;28;20956;-84
2021/08/10 04:34:35;;;;;;;1999.90;999.90;;;15.70;99.90;;;;;;5055831;28;20455;-84
2021/08/10 04:37:02;;;;;;;1999.90;999.90;;;15.70;99.90;;;;;;5072209;28;20997;-84
2021/08/10 04:39:29;;;;;;;1999.90;999.90;;;15.70;99.90;;;;;;5074022;28;20457;-84
2021/08/10 04:41:57;;;;;;;1999.90;999.90;;;15.70;99.90;;;;;;5075198;28;20460;-84
2021/08/10 04:44:24;;;;;;;1999.90;999.90;;;15.60;99.90;;;;;;5075304;28;20457;-84
2021/08/10 04:46:51;;;;;;;1999.90;999.90;;;15.60;99.90;;;;;;5073482;28;20616;-84
2021/08/10 04:49:18;;;;;;;1999.90;999.90;;;15.60;99.90;;;;;;5074154;28;20454;-85
2021/08/10 04:51:44;;;;;;;1999.90;999.90;;;15.60;99.90;;;;;;5074205;28;20543;-84
2021/08/10 04:54:14;;;;;;;1999.90;999.90;;;15.60;99.90;;;;;;5076145;28;20810;-85
2021/08/10 04:56:41;;;;;;;1999.90;999.90;;;15.60;99.90;;;;;;5064069;28;20479;-85
2021/08/10 04:59:09;;;;;;;1999.90;999.90;;;15.50;99.90;;;;;;5066941;28;20448;-84
2021/08/10 05:01:38;;;;;;;1999.90;999.90;;;15.50;99.90;;;;;;5074340;28;20477;-85
2021/08/10 05:04:05;;;;;;;1999.90;999.90;;;15.50;99.90;;;;;;5078940;28;20522;-85
2021/08/10 05:06:36;;;;;;;1999.90;999.90;;;15.50;99.90;;;;;;5078045;28;20566;-83
2021/08/10 05:09:03;;;;;;;1999.90;999.90;;;15.40;99.90;;;;;;5054574;28;20478;-81
2021/08/10 05:11:30;;;;;;;1999.90;999.90;;;16.70;99.90;;;;;;5033317;28;20458;-82
2021/08/10 05:13:57;;;;;;;1999.90;999.90;;;17.00;99.90;;;;;;5061997;28;20453;-82
2021/08/10 05:16:25;;;;;;;1999.90;999.90;;;17.30;99.90;;;;;;5067523;28;20487;-82
2021/08/10 05:18:52;;;;;;;1999.90;999.90;;;17.20;99.90;;;;;;5062558;28;20490;-83
2021/08/10 05:21:19;;;;;;;1999.90;999.90;;;17.00;99.90;;;;;;5061329;28;20452;-82
2021/08/10 05:23:46;;;;;;;1999.90;999.90;;;16.80;99.90;;;;;;5068479;28;20469;-83
2021/08/10 05:26:13;;;;;;;1999.90;999.90;;;16.60;99.90;;;;;;5078495;28;20485;-82
2021/08/10 05:28:40;;;;;;;1999.90;999.90;;;16.50;99.90;;;;;;5074505;28;20483;-83
2021/08/10 05:31:06;;;;;;;1999.90;999.90;;;16.30;99.90;;;;;;5092972;28;20461;-83
2021/08/10 05:33:35;;;;;;;1999.90;999.90;;;16.20;99.90;;;;;;5082442;28;20547;-82
2021/08/10 05:36:01;;;;;;;1999.90;999.90;;;16.20;99.90;;;;;;5074382;28;20460;-83
2021/08/10 05:38:28;;;;;;;1999.90;999.90;;;16.10;99.90;;;;;;5072274;28;20532;-82
2021/08/10 05:40:55;;;;;;;1999.90;999.90;;;16.10;99.90;;;;;;5079582;28;20447;-84
2021/08/10 05:43:22;;;;;;;1999.90;999.90;;;16.20;99.90;;;;;;5066489;28;21070;-83
2021/08/10 05:45:49;;;;;;;1999.90;999.90;;;16.00;99.90;;;;;;5077265;28;20481;-82
2021/08/10 05:48:16;;;;;;;1999.90;999.90;;;16.10;99.90;;;;;;5076242;28;20453;-83
2021/08/10 05:50:45;;;;;;;1999.90;999.90;;;16.10;99.90;;;;;;5069365;28;20542;-82
2021/08/10 05:53:12;;;;;;;1999.90;999.90;;;16.20;99.90;;;;;;5073618;28;20452;-82
2021/08/10 05:55:39;;;;;;;1999.90;999.90;;;16.20;99.90;;;;;;5060638;28;20541;-84
2021/08/10 05:58:06;;;;;;;1999.90;999.90;;;16.30;99.90;;;;;;5059167;28;20459;-81
2021/08/10 06:00:33;;;;;;;1999.90;999.90;;;16.40;99.90;;;;;;5059148;28;20537;-82
2021/08/10 06:03:00;;;;;;;1999.90;999.90;;;16.50;99.90;;;;;;5058287;28;21084;-82
2021/08/10 06:05:26;;;;;;;1999.90;999.90;;;16.60;99.90;;;;;;5062939;28;20921;-84
2021/08/10 06:07:54;;;;;;;1999.90;999.90;;;16.60;99.90;;;;;;5069365;28;20482;-83
2021/08/10 06:10:21;;;;;;;1999.90;999.90;;;16.70;99.90;;;;;;5075812;28;20451;-82
2021/08/10 06:12:48;;;;;;;1999.90;999.90;;;16.70;99.90;;;;;;5066766;28;20461;-83
2021/08/10 06:15:15;;;;;;;1999.90;999.90;;;16.70;99.90;;;;;;5060144;28;20483;-82
2021/08/10 06:17:42;;;;;;;1999.90;999.90;;;16.90;99.90;;;;;;5065306;28;20930;-81
2021/08/10 06:20:11;;;;;;;1999.90;999.90;;;16.80;99.90;;;;;;5059712;28;20533;-81
2021/08/10 06:22:38;;;;;;;1999.90;999.90;;;16.80;99.90;;;;;;5078861;28;21042;-81
2021/08/10 06:25:07;;;;;;;1999.90;999.90;;;16.90;99.90;;;;;;5062971;28;20498;-81
2021/08/10 06:27:33;;;;;;;1999.90;999.90;;;16.90;99.90;;;;;;5069639;28;20879;-82
2021/08/10 06:30:01;;;;;;;1999.90;999.90;;;17.00;99.90;;;;;;5064485;28;20540;-81
2021/08/10 06:32:28;;;;;;;1999.90;999.90;;;17.00;99.90;;;;;;5066743;28;20468;-82
2021/08/10 06:34:55;;;;;;;1999.90;999.90;;;17.00;99.90;;;;;;5067769;28;20462;-81
2021/08/10 06:37:22;;;;;;;1999.90;999.90;;;16.80;99.90;;;;;;5067489;28;20451;-81
2021/08/10 06:39:48;;;;;;;1999.90;999.90;;;16.90;99.90;;;;;;5072531;28;20447;-81
2021/08/10 06:42:20;;;;;;;1999.90;999.90;;;16.90;99.90;;;;;;5078160;28;20460;-83
2021/08/10 06:44:47;;;;;;;1999.90;999.90;;;16.70;99.90;;;;;;5077818;28;20448;-81
2021/08/10 06:47:14;;;;;;;1999.90;999.90;;;16.70;99.90;;;;;;5069817;28;20531;-83
2021/08/10 06:49:41;;;;;;;1999.90;999.90;;;16.70;99.90;;;;;;5075080;28;20873;-84
2021/08/10 06:52:09;;;;;;;1999.90;999.90;;;16.70;99.90;;;;;;5066555;28;20972;-83
2021/08/10 06:54:36;;;;;;;1999.90;999.90;;;16.70;99.90;;;;;;5076644;28;20458;-82
2021/08/10 06:57:06;;;;;;;1999.90;999.90;;;16.80;99.90;;;;;;5094379;28;20510;-83
2021/08/10 06:59:35;;;;;;;1999.90;999.90;;;16.90;99.90;;;;;;5094516;28;20446;-82
2021/08/10 07:02:03;;;;;;;1999.90;999.90;;;16.80;99.90;;;;;;5075378;28;20446;-82
2021/08/10 07:04:29;;;;;;;1999.90;999.90;;;16.80;99.90;;;;;;5077381;28;20453;-82
2021/08/10 07:06:56;;;;;;;1999.90;999.90;;;16.90;99.90;;;;;;5074230;28;20476;-82
2021/08/10 07:09:23;;;;;;;1999.90;999.90;;;17.10;99.90;;;;;;5071675;28;21136;-82
2021/08/10 07:11:50;;;;;;;1999.90;999.90;;;17.10;99.90;;;;;;5069465;28;20530;-82
2021/08/10 07:14:17;;;;;;;1999.90;999.90;;;17.20;99.90;;;;;;5072920;28;20459;-82
2021/08/10 07:16:46;;;;;;;1999.90;999.90;;;17.20;99.90;;;;;;5071255;28;21090;-83
2021/08/10 07:19:13;;;;;;;1999.90;999.90;;;17.20;99.90;;;;;;5076228;28;20497;-82
2021/08/10 07:21:41;;;;;;;1999.90;999.90;;;17.30;99.90;;;;;;5071283;28;20443;-82
2021/08/10 07:24:08;;;;;;;1999.90;999.90;;;17.40;99.90;;;;;;5066768;28;20534;-82
2021/08/10 07:26:35;;;;;;;1999.90;999.90;;;17.50;99.90;;;;;;5064303;28;20496;-83
2021/08/10 07:29:03;;;;;;;1999.90;999.90;;;17.60;99.90;;;;;;5074728;28;20531;-82
2021/08/10 07:31:30;;;;;;;1999.90;999.90;;;17.70;99.90;;;;;;5076913;28;20459;-83
2021/08/10 07:33:58;;;;;;;1999.90;999.90;;;17.80;99.90;;;;;;5065543;28;20463;-82
2021/08/10 07:36:26;;;;;;;1999.90;999.90;;;17.90;99.90;;;;;;5068820;28;20477;-83
2021/08/10 07:38:52;;;;;;;1999.90;999.90;;;18.20;99.90;;;;;;5059237;28;20539;-83
2021/08/10 07:41:20;;;;;;;1999.90;999.90;;;18.40;99.90;;;;;;5076224;28;20937;-83
2021/08/10 07:43:46;;;;;;;1999.90;999.90;;;18.40;99.90;;;;;;5078372;28;20546;-83
2021/08/10 07:46:14;;;;;;;1999.90;999.90;;;18.30;99.90;;;;;;5074848;28;20469;-85
2021/08/10 07:48:41;;;;;;;1999.90;999.90;;;18.30;99.90;;;;;;5071483;28;20976;-85
2021/08/10 07:51:09;;;;;;;1999.90;999.90;;;18.40;99.90;;;;;;5071472;28;20460;-82
2021/08/10 07:53:37;;;;;;;1999.90;999.90;;;18.40;99.90;;;;;;5072570;28;20796;-84
2021/08/10 07:56:06;;;;;;;1999.90;999.90;;;18.40;99.90;;;;;;5072596;28;20473;-85
2021/08/10 07:58:33;;;;;;;1999.90;999.90;;;18.60;99.90;;;;;;5074545;28;20468;-85
2021/08/10 08:01:04;;;;;;;1999.90;999.90;;;18.70;99.90;;;;;;5067242;28;20447;-84
2021/08/10 08:03:31;;;;;;;1999.90;999.90;;;18.90;99.90;;;;;;5052218;28;20904;-84
2021/08/10 08:05:58;;;;;;;659.47;613.97;;;19.00;99.90;;;;;;5052758;28;21044;-84
2021/08/10 08:08:28;;;;;;;748.13;702.33;;;18.90;99.90;;;;;;5053669;28;20863;-84
2021/08/10 08:10:57;;;;;;;1204.47;838.07;;;18.90;99.90;;;;;;5070708;28;20970;-85
2021/08/10 08:13:25;;;;;;;1999.90;999.90;;;18.90;99.90;;;;;;5072972;28;20454;-84
2021/08/10 08:15:52;;;;;;;1999.90;999.90;;;18.90;99.90;;;;;;5072552;28;20513;-84
2021/08/10 08:18:19;;;;;;;831.03;778.93;;;19.20;99.90;;;;;;5071834;28;20470;-84
2021/08/10 08:20:48;;;;;;;819.00;768.40;;;19.00;99.90;;;;;;5069606;28;20519;-84
2021/08/10 08:23:16;;;;;;;1480.13;801.97;;;19.00;99.90;;;;;;5058834;28;20456;-85
2021/08/10 08:25:45;;;;;;;1999.90;999.90;;;19.10;99.90;;;;;;5051517;28;20545;-84
2021/08/10 08:28:12;;;;;;;846.67;793.37;;;19.30;99.90;;;;;;5072821;28;20525;-85
2021/08/10 08:30:40;;;;;;;850.90;798.80;;;19.60;99.90;;;;;;5072423;28;20553;-84
2021/08/10 08:33:08;;;;;;;634.47;590.40;;;19.80;99.90;;;;;;5071086;28;20462;-84
2021/08/10 08:35:35;;;;;;;778.50;729.70;;;20.00;99.90;;;;;;5072907;28;20557;-85
2021/08/10 08:38:02;;;;;;;710.33;667.93;;;20.00;99.90;;;;;;5052983;28;20457;-84
2021/08/10 08:40:29;;;;;;;718.70;675.50;;;19.90;99.90;;;;;;5051859;28;20451;-86
2021/08/10 08:42:57;;;;;;;762.30;715.47;;;20.20;99.90;;;;;;5053550;28;20969;-83
2021/08/10 08:45:25;;;;;;;888.83;831.33;;;20.40;99.90;;;;;;5063585;28;20547;-84
2021/08/10 08:47:55;;;;;;;880.80;825.57;;;20.60;99.90;;;;;;5058558;28;20562;-85
2021/08/10 08:50:23;;;;;;;742.83;697.70;;;20.70;99.90;;;;;;5056595;28;20448;-85
2021/08/10 08:52:52;;;;;;;1000.57;933.83;;;20.60;99.90;;;;;;5057704;28;20452;-85
2021/08/10 08:55:19;;;;;;;810.53;760.00;;;20.60;99.90;;;;;;5056561;28;20566;-85
2021/08/10 08:57:46;;;;;;;780.73;734.23;;;20.60;99.90;;;;;;5060246;28;20452;-84
2021/08/10 09:00:16;;;;;;;978.73;914.17;;;20.40;99.90;;;;;;5060766;28;20451;-84
2021/08/10 09:02:44;;;;;;;934.43;873.73;;;20.20;99.90;;;;;;5058510;28;20465;-85
2021/08/10 09:05:11;;;;;;;855.50;802.47;;;20.20;99.90;;;;;;5058611;28;20468;-84
2021/08/10 09:07:38;;;;;;;942.77;879.50;;;20.00;99.90;;;;;;5064492;28;20479;-83
2021/08/10 09:10:08;;;;;;;979.17;913.10;;;20.10;99.90;;;;;;5058732;28;20679;-83
2021/08/10 09:12:45;;;;;;;845.10;792.73;;;20.30;99.90;;;;;;5060095;28;20462;-84
2021/08/10 09:15:29;;;;;;;902.37;845.40;;;20.40;99.90;;;;;;5060035;28;20471;-85
2021/08/10 09:17:56;;;;;;;922.93;863.40;;;20.60;99.90;;;;;;5075700;28;20451;-84
2021/08/10 09:20:23;;;;;;;966.57;903.33;;;20.50;99.90;;;;;;5060680;28;20505;-84
2021/08/10 09:22:55;;;;;;;814.80;764.33;;;20.50;99.90;;;;;;5060141;28;21011;-84
2021/08/10 09:25:22;;;;;;;944.33;882.30;;;20.60;99.90;;;;;;5070171;28;20476;-84
2021/08/10 09:27:49;;;;;;;911.83;855.27;;;20.60;99.90;;;;;;5091123;28;20478;-83
2021/08/10 09:30:26;;;;;;;873.53;818.43;;;20.50;99.90;;;;;;5094817;28;20426;-83
2021/08/10 09:32:57;;;;;;;867.53;812.93;;;20.50;99.90;;;;;;5084451;28;20450;-83
2021/08/10 09:35:25;;;;;;;931.73;871.40;;;20.20;99.90;;;;;;5079947;28;20479;-84
2021/08/10 09:38:20;;;;;;;999.70;931.63;;;20.10;99.90;;;;;;5062336;28;20538;-85
2021/08/10 09:40:51;;;;;;;824.80;774.73;;;20.10;99.90;;;;;;5013646;28;20455;-84
2021/08/10 09:43:32;;;;;;;824.37;774.30;;;19.90;99.90;;;;;;5059036;28;20454;-84
2021/08/10 09:46:09;;;;;;;1015.70;945.57;;;20.10;99.90;;;;;;5060780;28;20483;-85
2021/08/10 09:48:36;;;;;;;846.27;793.70;;;20.00;99.90;;;;;;5059742;28;20849;-84
2021/08/10 09:51:07;;;;;;;844.50;791.37;;;20.00;99.90;;;;;;5064845;28;20456;-84
2021/08/10 09:53:34;;;;;;;831.23;779.93;;;20.00;99.90;;;;;;5073067;28;20534;-85
2021/08/10 09:56:01;;;;;;;856.73;802.33;;;20.00;99.90;;;;;;5067770;28;20562;-85
2021/08/10 09:58:28;;;;;;;777.70;730.20;;;20.40;99.90;;;;;;5059718;28;20830;-84
2021/08/10 10:01:00;;;;;;;799.03;749.00;;;20.70;99.90;;;;;;5059074;28;20462;-82
2021/08/10 10:03:29;;;;;;;894.40;836.97;;;21.30;99.90;;;;;;5059410;28;20459;-85
2021/08/10 10:05:56;;;;;;;859.93;805.60;;;21.80;99.90;;;;;;5059127;28;20467;-86
2021/08/10 10:08:25;;;;;;;1068.63;988.80;;;22.20;99.90;;;;;;5075104;28;20573;-85
2021/08/10 10:10:54;;;;;;;1112.10;999.90;;;22.30;99.90;;;;;;5072105;28;20454;-86
2021/08/10 10:13:22;;;;;;;1142.27;999.90;;;22.20;99.90;;;;;;5063668;28;20458;-85
2021/08/10 10:15:50;;;;;;;1124.20;999.90;;;22.20;99.90;;;;;;5058718;28;20483;-85
2021/08/10 10:18:18;;;;;;;1131.10;999.90;;;22.20;99.90;;;;;;5059585;28;20450;-84
2021/08/10 10:20:50;;;;;;;1107.57;999.90;;;21.80;99.90;;;;;;5070629;28;20440;-85
2021/08/10 10:23:40;;;;;;;1110.60;999.90;;;21.80;99.90;;;;;;5078615;28;20455;-84
2021/08/10 10:26:08;;;;;;;1145.57;999.90;;;21.50;99.90;;;;;;5064732;28;20485;-85
2021/08/10 10:28:36;;;;;;;1033.77;946.70;;;21.70;99.90;;;;;;5079756;28;20501;-83
2021/08/10 10:31:04;;;;;;;1999.90;999.90;;;21.60;99.90;;;;;;5063916;28;20519;-83
2021/08/10 10:33:32;;;;;;;1999.90;999.90;;;21.80;99.90;;;;;;5055989;28;20462;-84
2021/08/10 10:36:01;;;;;;;1999.90;999.90;;;21.90;99.90;;;;;;5056466;28;20478;-83
2021/08/10 10:38:29;;;;;;;1999.90;999.90;;;22.00;99.90;;;;;;5059752;28;20470;-83
2021/08/10 10:40:57;;;;;;;1670.70;973.17;;;22.30;99.90;;;;;;5055931;28;20452;-83
2021/08/10 10:43:24;;;;;;;1501.13;809.37;;;23.00;99.90;;;;;;5055910;28;20462;-83
2021/08/10 10:45:54;;;;;;;1999.90;999.90;;;23.30;99.90;;;;;;5054642;28;20467;-85
2021/08/10 10:48:43;;;;;;;1999.90;999.90;;;23.30;99.90;;;;;;5060043;28;20483;-84
2021/08/10 10:51:13;;;;;;;1999.90;999.90;;;23.50;99.90;;;;;;5058303;28;20530;-85
2021/08/10 10:53:40;;;;;;;1999.90;999.90;;;23.50;99.90;;;;;;5059533;28;20483;-84
2021/08/10 10:56:32;;;;;;;1999.90;999.90;;;23.80;99.90;;;;;;5058114;28;20468;-86
2021/08/10 10:59:33;;;;;;;1999.90;999.90;;;23.90;99.90;;;;;;5071535;28;21134;-85
2021/08/10 11:02:27;;;;;;;1999.90;999.90;;;23.90;99.90;;;;;;5076310;28;20542;-83
2021/08/10 11:05:22;;;;;;;1999.90;999.90;;;23.80;99.90;;;;;;5008472;28;20542;-85
2021/08/10 11:07:53;;;;;;;1999.90;999.90;;;23.80;99.90;;;;;;5062984;28;20478;-83
2021/08/10 11:10:40;;;;;;;1999.90;999.90;;;23.80;99.90;;;;;;5065836;28;20462;-83
2021/08/10 11:13:38;;;;;;;1999.90;999.90;;;24.00;99.90;;;;;;5061849;28;20463;-83
2021/08/10 11:16:07;;;;;;;1999.90;999.90;;;23.90;99.90;;;;;;5057116;28;20475;-84
2021/08/10 11:18:35;;;;;;;1999.90;999.90;;;23.40;99.90;;;;;;5063636;28;20943;-84
2021/08/10 11:21:25;;;;;;;1999.90;999.90;;;23.40;99.90;;;;;;5062163;28;20449;-84
2021/08/10 11:23:53;;;;;;;1999.90;999.90;;;23.30;99.90;;;;;;5066271;28;20447;-84
2021/08/10 11:26:41;;;;;;;1999.90;999.90;;;23.70;99.90;;;;;;5069029;28;20562;-85
2021/08/10 11:29:10;;;;;;;1999.90;999.90;;;24.40;99.90;;;;;;5069735;28;20483;-84
2021/08/10 11:31:51;;;;;;;1999.90;999.90;;;25.00;99.90;;;;;;5067156;28;20448;-84
2021/08/10 11:34:41;;;;;;;1999.90;999.90;;;25.20;99.90;;;;;;5069354;28;20448;-84
2021/08/10 11:37:34;;;;;;;1999.90;999.90;;;25.80;99.90;;;;;;5066983;28;20510;-83
2021/08/10 11:40:11;;;;;;;1999.90;999.90;;;25.10;99.90;;;;;;5070183;28;20477;-84
2021/08/10 11:42:38;;;;;;;1999.90;999.90;;;24.80;99.90;;;;;;5062524;28;20439;-85
2021/08/10 11:45:07;;;;;;;1999.90;999.90;;;25.00;99.90;;;;;;5077883;28;20469;-85
2021/08/10 11:47:34;;;;;;;1999.90;999.90;;;25.60;99.90;;;;;;5076466;28;20479;-84
2021/08/10 11:50:00;;;;;;;1999.90;999.90;;;26.10;99.90;;;;;;5065410;28;20487;-85
2021/08/10 11:52:44;;;;;;;1999.90;999.90;;;26.40;99.90;;;;;;5059709;28;20448;-86
2021/08/10 11:55:12;;;;;;;1999.90;999.90;;;26.50;99.90;;;;;;5056059;28;20862;-84
2021/08/10 11:57:54;;;;;;;1999.90;999.90;;;26.50;99.90;;;;;;5049028;28;21549;-84
2021/08/10 12:00:22;;;;;;;1999.90;999.90;;;26.80;99.90;;;;;;5075435;28;20451;-81
2021/08/10 12:02:49;;;;;;;1999.90;999.90;;;26.80;99.90;;;;;;5078533;28;20451;-86
2021/08/10 12:05:16;;;;;;;1999.90;999.90;;;26.60;99.90;;;;;;5079741;28;20566;-85
2021/08/10 12:07:51;;;;;;;1999.90;999.90;;;27.00;99.90;;;;;;5076162;28;20490;-84
2021/08/10 12:10:29;;;;;;;1999.90;999.90;;;26.80;99.90;;;;;;5079230;28;20450;-82
2021/08/10 12:12:57;;;;;;;1999.90;999.90;;;26.70;99.90;;;;;;5077138;28;20459;-82